Station Historical Data
Daily Summary for June 25, 2017 Units:  Metric    English   Both
« Previous Day
Next Day »
Daily Weekly Monthly Yearly Custom
  High: Low: Average:
Temperature: 23.3 °C 15.1 °C 19.3 °C
Dew Point: 14.7 °C 9.5 °C 12.4 °C
Humidity: 86% 47% 65%
Wind Speed: 25.7km/h 0km/h 8.2km/h
Wind Gust: 40.2km/h - -
Wind- - WSW
Pressure: 1015.1 hPa 1012.8 hPa -
Precipitation: 0 mm    
Historical Graphs
 
 
Tabular Data for June 25, 2017
Time Temperature Dew Point Pressure Wind Wind Speed Wind Gust Humidity Rainfall Rate (Hourly)
00:04 18.4 °C 13.1 °C 1012.8 hPa Calm   3.2 km/h 71% 0 mm
00:09 18.6 °C 13.2 °C 1012.8 hPa Calm   4.8 km/h 71% 0 mm
00:14 18.6 °C 13.1 °C 1013.1 hPa SW 3.2 km/h 4.8 km/h 70% 0 mm
00:19 18.6 °C 12.8 °C 1013.1 hPa Calm   3.2 km/h 69% 0 mm
00:24 18.6 °C 12.8 °C 1013.1 hPa Calm     69% 0 mm
00:29 18.6 °C 12.6 °C 1013.1 hPa SW 1.6 km/h 8 km/h 68% 0 mm
00:34 18.6 °C 12.6 °C 1013.1 hPa WSW 1.6 km/h 4.8 km/h 68% 0 mm
00:39 18.6 °C 12.3 °C 1013.1 hPa WSW 4.8 km/h 4.8 km/h 67% 0 mm
00:44 18.6 °C 12.6 °C 1013.1 hPa Calm   4.8 km/h 68% 0 mm
00:49 18.6 °C 12.3 °C 1013.1 hPa WSW 1.6 km/h 6.4 km/h 67% 0 mm
00:54 18.5 °C 12.5 °C 1013.1 hPa SW 1.6 km/h 6.4 km/h 68% 0 mm
00:59 18.4 °C 12.4 °C 1013.1 hPa SW 3.2 km/h 8 km/h 68% 0 mm
01:05 18.4 °C 12.6 °C 1013.1 hPa SW 3.2 km/h 8 km/h 69% 0 mm
01:10 18.4 °C 12.7 °C 1013.1 hPa SSW 4.8 km/h 9.7 km/h 69% 0 mm
01:15 18.4 °C 13.1 °C 1013.1 hPa SW 1.6 km/h 11.3 km/h 71% 0 mm
01:20 18.3 °C 13.2 °C 1013.1 hPa SW 8 km/h 11.3 km/h 72% 0 mm
01:25 18.1 °C 13.2 °C 1013.1 hPa SSW 1.6 km/h 11.3 km/h 73% 0 mm
01:30 17.7 °C 13.2 °C 1013.4 hPa SW 3.2 km/h 11.3 km/h 75% 0 mm
01:35 17.6 °C 13.3 °C 1013.4 hPa SW 3.2 km/h 9.7 km/h 76% 0 mm
01:40 17.4 °C 13.4 °C 1013.4 hPa SW 3.2 km/h 8 km/h 77% 0 mm
01:45 17.4 °C 13.5 °C 1013.4 hPa Calm   6.4 km/h 78% 0 mm
01:50 17.4 °C 13.8 °C 1013.4 hPa WSW 3.2 km/h 6.4 km/h 79% 0 mm
01:55 17.4 °C 13.8 °C 1013.4 hPa Calm   8 km/h 79% 0 mm
02:00 17.3 °C 13.7 °C 1013.1 hPa WSW 1.6 km/h 8 km/h 79% 0 mm
02:05 17.1 °C 13.6 °C 1013.4 hPa WSW 1.6 km/h 4.8 km/h 80% 0 mm
02:10 17.1 °C 13.8 °C 1013.4 hPa SW 3.2 km/h 6.4 km/h 81% 0 mm
02:15 16.9 °C 13.7 °C 1013.4 hPa Calm   6.4 km/h 81% 0 mm
02:20 16.9 °C 13.6 °C 1013.4 hPa SSW 1.6 km/h 6.4 km/h 81% 0 mm
02:25 16.8 °C 13.6 °C 1013.4 hPa SW 1.6 km/h 8 km/h 81% 0 mm
02:30 17 °C 13.7 °C 1013.4 hPa SW 3.2 km/h 9.7 km/h 81% 0 mm
02:35 16.9 °C 13.7 °C 1013.4 hPa SW 3.2 km/h 9.7 km/h 81% 0 mm
02:40 16.9 °C 13.6 °C 1013.4 hPa Calm   4.8 km/h 81% 0 mm
02:45 16.7 °C 13.4 °C 1013.1 hPa WSW 1.6 km/h 4.8 km/h 81% 0 mm
02:50 16.5 °C 13.4 °C 1013.4 hPa Calm     82% 0 mm
02:55 16.3 °C 13.2 °C 1013.4 hPa Calm     82% 0 mm
03:00 16.1 °C 13.2 °C 1013.4 hPa Calm   1.6 km/h 83% 0 mm
03:05 16 °C 13.1 °C 1013.4 hPa Calm   6.4 km/h 83% 0 mm
03:10 15.9 °C 13 °C 1013.4 hPa SW 1.6 km/h 6.4 km/h 83% 0 mm
03:15 15.7 °C 12.8 °C 1013.1 hPa SSW 1.6 km/h 4.8 km/h 83% 0 mm
03:20 15.5 °C 12.6 °C 1013.4 hPa South 3.2 km/h 4.8 km/h 83% 0 mm
03:25 15.3 °C 12.4 °C 1013.4 hPa Calm   6.4 km/h 83% 0 mm
03:30 15.2 °C 12.6 °C 1013.4 hPa South 1.6 km/h 6.4 km/h 84% 0 mm
03:35 15.2 °C 12.6 °C 1013.1 hPa SSE 3.2 km/h 6.4 km/h 84% 0 mm
03:40 15.1 °C 12.4 °C 1013.1 hPa SSE 1.6 km/h 4.8 km/h 84% 0 mm
03:45 15.1 °C 12.4 °C 1013.4 hPa Calm   4.8 km/h 84% 0 mm
03:50 15.1 °C 12.6 °C 1013.1 hPa Calm   8 km/h 85% 0 mm
03:55 15.1 °C 12.6 °C 1013.1 hPa South 3.2 km/h 8 km/h 85% 0 mm
04:00 15.1 °C 12.6 °C 1013.1 hPa South 3.2 km/h 6.4 km/h 85% 0 mm
04:05 15.2 °C 12.7 °C 1013.1 hPa Calm   4.8 km/h 85% 0 mm
04:10 15.3 °C 12.9 °C 1013.1 hPa SSW 3.2 km/h 6.4 km/h 86% 0 mm
04:15 15.4 °C 12.9 °C 1013.1 hPa Calm   8 km/h 85% 0 mm
04:20 15.4 °C 12.9 °C 1013.1 hPa Calm   4.8 km/h 85% 0 mm
04:25 15.3 °C 12.8 °C 1013.1 hPa Calm     85% 0 mm
04:30 15.4 °C 13.1 °C 1013.1 hPa Calm     86% 0 mm
04:35 16.1 °C 13.6 °C 1013.1 hPa WSW 3.2 km/h 16.1 km/h 85% 0 mm
04:40 16.8 °C 13.3 °C 1013.4 hPa SW 8 km/h 17.7 km/h 80% 0 mm
04:45 17.2 °C 12.9 °C 1013.4 hPa WSW 9.7 km/h 16.1 km/h 76% 0 mm
04:50 17.2 °C 12.5 °C 1013.4 hPa WSW 9.7 km/h 14.5 km/h 74% 0 mm
04:55 17.2 °C 12.5 °C 1013.1 hPa West 6.4 km/h 14.5 km/h 74% 0 mm
05:00 17.1 °C 12.4 °C 1013.1 hPa West 6.4 km/h 12.9 km/h 74% 0 mm
05:05 17 °C 12.6 °C 1013.1 hPa WSW 4.8 km/h 12.9 km/h 75% 0 mm
05:10 17 °C 12.6 °C 1013.1 hPa West 8 km/h 9.7 km/h 75% 0 mm
05:15 16.9 °C 12.6 °C 1013.4 hPa West 3.2 km/h 8 km/h 76% 0 mm
05:20 16.8 °C 12.8 °C 1013.4 hPa West 3.2 km/h 6.4 km/h 77% 0 mm
05:25 16.8 °C 12.7 °C 1013.4 hPa WSW 3.2 km/h 8 km/h 77% 0 mm
05:30 16.7 °C 12.9 °C 1013.4 hPa WSW 3.2 km/h 8 km/h 78% 0 mm
05:35 16.7 °C 12.9 °C 1013.4 hPa WSW 3.2 km/h 8 km/h 78% 0 mm
05:40 16.7 °C 13 °C 1013.4 hPa West 3.2 km/h 11.3 km/h 79% 0 mm
05:45 16.6 °C 12.9 °C 1013.4 hPa West 4.8 km/h 9.7 km/h 79% 0 mm
05:50 16.8 °C 12.9 °C 1013.4 hPa West 6.4 km/h 16.1 km/h 78% 0 mm
05:54 17 °C 12.7 °C 1013.4 hPa WSW 6.4 km/h 16.1 km/h 76% 0 mm
06:00 17.2 °C 12.9 °C 1013.4 hPa WSW 3.2 km/h 11.3 km/h 76% 0 mm
06:05 17.1 °C 12.8 °C 1013.8 hPa Calm   9.7 km/h 76% 0 mm
06:10 17.2 °C 13.1 °C 1013.4 hPa West 4.8 km/h 11.3 km/h 77% 0 mm
06:15 17.1 °C 13.2 °C 1013.4 hPa West 4.8 km/h 11.3 km/h 78% 0 mm
06:20 17.2 °C 13.3 °C 1013.4 hPa West 4.8 km/h 11.3 km/h 78% 0 mm
06:24 17.2 °C 13.3 °C 1013.4 hPa West 4.8 km/h 11.3 km/h 78% 0 mm
06:30 17.1 °C 13.4 °C 1013.4 hPa West 4.8 km/h 12.9 km/h 79% 0 mm
06:35 17 °C 13.3 °C 1013.4 hPa West 6.4 km/h 12.9 km/h 79% 0 mm
06:40 17.1 °C 13.4 °C 1013.8 hPa West 4.8 km/h 9.7 km/h 79% 0 mm
06:45 17.1 °C 13.2 °C 1013.8 hPa WSW 4.8 km/h 8 km/h 78% 0 mm
06:50 17.2 °C 13.2 °C 1013.8 hPa WSW 4.8 km/h 11.3 km/h 77% 0 mm
06:55 17.3 °C 13.2 °C 1013.8 hPa West 4.8 km/h 12.9 km/h 77% 0 mm
07:00 17.3 °C 13.3 °C 1013.8 hPa WSW 3.2 km/h 9.7 km/h 77% 0 mm
07:05 17.4 °C 13.2 °C 1013.8 hPa WNW 3.2 km/h 11.3 km/h 76% 0 mm
07:10 17.6 °C 13.1 °C 1013.8 hPa West 6.4 km/h 8 km/h 75% 0 mm
07:15 17.8 °C 13.1 °C 1013.8 hPa West 1.6 km/h 8 km/h 74% 0 mm
07:20 18.1 °C 13.2 °C 1013.8 hPa WSW 4.8 km/h 9.7 km/h 73% 0 mm
07:25 18.3 °C 12.7 °C 1013.8 hPa WSW 4.8 km/h 11.3 km/h 70% 0 mm
07:30 18.4 °C 12.7 °C 1013.8 hPa West 4.8 km/h 14.5 km/h 69% 0 mm
07:35 18.5 °C 12.7 °C 1013.8 hPa West 6.4 km/h 14.5 km/h 69% 0 mm
07:40 18.6 °C 12.3 °C 1013.8 hPa West 8 km/h 16.1 km/h 67% 0 mm
07:45 18.6 °C 12.6 °C 1014.1 hPa WSW 8 km/h 17.7 km/h 68% 0 mm
07:49 18.9 °C 12.7 °C 1014.1 hPa West 8 km/h 20.9 km/h 67% 0 mm
07:54 19.3 °C 12.8 °C 1014.1 hPa West 4.8 km/h 16.1 km/h 66% 0 mm
08:00 19.3 °C 12.8 °C 1014.1 hPa SW 11.3 km/h 17.7 km/h 66% 0 mm
08:05 19 °C 12.7 °C 1014.1 hPa West 4.8 km/h 16.1 km/h 67% 0 mm
08:10 19.2 °C 12.9 °C 1014.1 hPa WSW 8 km/h 14.5 km/h 67% 0 mm
08:14 19.4 °C 13.2 °C 1014.1 hPa WSW 8 km/h 14.5 km/h 67% 0 mm
08:20 19.6 °C 12.8 °C 1014.1 hPa WSW 6.4 km/h 14.5 km/h 65% 0 mm
08:25 19.7 °C 12.7 °C 1014.4 hPa WSW 8 km/h 17.7 km/h 64% 0 mm
08:30 19.9 °C 13.2 °C 1014.1 hPa WSW 8 km/h 17.7 km/h 65% 0 mm
08:35 20 °C 12.7 °C 1014.1 hPa WSW 8 km/h 14.5 km/h 63% 0 mm
08:40 20.1 °C 12.3 °C 1014.4 hPa WNW 3.2 km/h 17.7 km/h 61% 0 mm
08:45 20.1 °C 12.6 °C 1014.4 hPa WSW 4.8 km/h 17.7 km/h 62% 0 mm
08:49 20.3 °C 12.8 °C 1014.4 hPa WSW 8 km/h 17.7 km/h 62% 0 mm
08:55 20.2 °C 12.4 °C 1014.4 hPa WSW 9.7 km/h 22.5 km/h 61% 0 mm
09:00 20.3 °C 12.6 °C 1014.4 hPa SW 20.9 km/h 20.9 km/h 61% 0 mm
09:04 20.4 °C 12.6 °C 1014.4 hPa SW 12.9 km/h 24.1 km/h 61% 0 mm
09:09 20.5 °C 12.2 °C 1014.4 hPa WSW 6.4 km/h 20.9 km/h 59% 0 mm
09:14 20.5 °C 11.9 °C 1014.4 hPa WSW 11.3 km/h 20.9 km/h 58% 0 mm
09:19 20.4 °C 11.6 °C 1014.4 hPa West 11.3 km/h 20.9 km/h 57% 0 mm
09:25 20.6 °C 11.8 °C 1014.4 hPa NNW 14.5 km/h 20.9 km/h 57% 0 mm
09:30 20.8 °C 11.7 °C 1014.4 hPa WNW 6.4 km/h 22.5 km/h 56% 0 mm
09:35 20.8 °C 11.1 °C 1014.4 hPa SW 11.3 km/h 25.7 km/h 54% 0 mm
09:40 20.8 °C 11.2 °C 1014.4 hPa WSW 16.1 km/h 24.1 km/h 54% 0 mm
09:44 21 °C 11.3 °C 1014.4 hPa WSW 11.3 km/h 24.1 km/h 54% 0 mm
09:50 21.2 °C 12.1 °C 1014.4 hPa WSW 11.3 km/h 22.5 km/h 56% 0 mm
09:55 21.4 °C 10.8 °C 1014.8 hPa WSW 11.3 km/h 22.5 km/h 51% 0 mm
10:00 21.6 °C 11.3 °C 1014.8 hPa West 9.7 km/h 19.3 km/h 52% 0 mm
10:05 21.6 °C 10.7 °C 1014.8 hPa WSW 9.7 km/h 22.5 km/h 50% 0 mm
10:10 21.3 °C 10.1 °C 1014.8 hPa WSW 11.3 km/h 25.7 km/h 49% 0 mm
10:15 21.3 °C 10.7 °C 1014.8 hPa WSW 12.9 km/h 25.7 km/h 51% 0 mm
10:19 21.3 °C 11.1 °C 1014.8 hPa West 6.4 km/h 20.9 km/h 52% 0 mm
10:24 21.4 °C 11.4 °C 1014.8 hPa West 8 km/h 20.9 km/h 53% 0 mm
10:29 21.7 °C 12.5 °C 1014.8 hPa West 16.1 km/h 22.5 km/h 56% 0 mm
10:34 21.7 °C 12.5 °C 1014.8 hPa West 16.1 km/h 19.3 km/h 56% 0 mm
10:39 21.4 °C 11.2 °C 1014.8 hPa WSW 11.3 km/h 27.4 km/h 52% 0 mm
10:45 21.3 °C 11.6 °C 1014.8 hPa WSW 12.9 km/h 27.4 km/h 54% 0 mm
10:50 21.4 °C 12.2 °C 1014.8 hPa SW 12.9 km/h 29 km/h 56% 0 mm
10:55 21.4 °C 11.7 °C 1014.8 hPa SW 16.1 km/h 25.7 km/h 54% 0 mm
11:00 21.4 °C 11.4 °C 1014.8 hPa WSW 4.8 km/h 29 km/h 53% 0 mm
11:05 21.4 °C 10.3 °C 1014.8 hPa WSW 14.5 km/h 30.6 km/h 49% 0 mm
11:10 21.3 °C 10.4 °C 1014.8 hPa WSW 12.9 km/h 30.6 km/h 50% 0 mm
11:14 21.1 °C 9.7 °C 1014.8 hPa WSW 14.5 km/h 25.7 km/h 48% 0 mm
11:19 21.4 °C 10.6 °C 1014.8 hPa NNW 8 km/h 25.7 km/h 50% 0 mm
11:25 21.9 °C 11.9 °C 1014.8 hPa WNW 11.3 km/h 24.1 km/h 53% 0 mm
11:29 21.7 °C 11.4 °C 1014.8 hPa SSW 14.5 km/h 25.7 km/h 52% 0 mm
11:34 21.7 °C 12.3 °C 1014.8 hPa SW 25.7 km/h 27.4 km/h 55% 0 mm
11:39 21.4 °C 12.6 °C 1014.8 hPa WSW 14.5 km/h 27.4 km/h 57% 0 mm
11:44 21.7 °C 13.9 °C 1014.4 hPa WSW 12.9 km/h 27.4 km/h 61% 0 mm
11:50 21.6 °C 12.9 °C 1014.4 hPa WSW 11.3 km/h 24.1 km/h 58% 0 mm
11:55 21.7 °C 13.1 °C 1014.4 hPa WNW 14.5 km/h 22.5 km/h 58% 0 mm
12:00 21.3 °C 13 °C 1014.4 hPa WSW 16.1 km/h 27.4 km/h 59% 0 mm
12:05 21.7 °C 13.1 °C 1014.4 hPa SSW 9.7 km/h 25.7 km/h 58% 0 mm
12:09 21.3 °C 12.7 °C 1014.4 hPa West 12.9 km/h 25.7 km/h 58% 0 mm
12:14 21.7 °C 13.6 °C 1014.4 hPa West 6.4 km/h 33.8 km/h 60% 0 mm
12:19 22 °C 13.9 °C 1014.4 hPa WSW 8 km/h 25.7 km/h 60% 0 mm
12:24 21.7 °C 13.9 °C 1014.8 hPa WSW 14.5 km/h 24.1 km/h 61% 0 mm
12:29 21.7 °C 14.4 °C 1014.8 hPa WSW 11.3 km/h 24.1 km/h 63% 0 mm
12:34 21.9 °C 14.5 °C 1014.8 hPa South 17.7 km/h 29 km/h 63% 0 mm
12:39 21.9 °C 14.5 °C 1014.4 hPa WSW 12.9 km/h 29 km/h 63% 0 mm
12:44 21.8 °C 14.7 °C 1014.4 hPa WSW 12.9 km/h 25.7 km/h 64% 0 mm
12:49 21.8 °C 14.2 °C 1014.4 hPa WSW 14.5 km/h 29 km/h 62% 0 mm
12:55 21.6 °C 14.2 °C 1014.1 hPa WSW 9.7 km/h 29 km/h 63% 0 mm
13:00 21.8 °C 14.5 °C 1014.1 hPa SW 9.7 km/h 24.1 km/h 63% 0 mm
13:04 21.6 °C 13.2 °C 1014.1 hPa SW 16.1 km/h 24.1 km/h 59% 0 mm
13:09 21.5 °C 12.3 °C 1013.8 hPa WSW 12.9 km/h 27.4 km/h 56% 0 mm
13:14 21.7 °C 12.2 °C 1014.1 hPa WSW 14.5 km/h 27.4 km/h 55% 0 mm
13:19 21.9 °C 11.9 °C 1013.8 hPa WSW 14.5 km/h 27.4 km/h 53% 0 mm
13:25 22.2 °C 12.7 °C 1014.1 hPa WSW 12.9 km/h 27.4 km/h 55% 0 mm
13:30 22.1 °C 12.9 °C 1013.8 hPa WSW 12.9 km/h 29 km/h 56% 0 mm
13:34 22.3 °C 13.3 °C 1013.8 hPa WSW 14.5 km/h 29 km/h 57% 0 mm
13:40 22.3 °C 13.3 °C 1013.8 hPa SW 12.9 km/h 32.2 km/h 57% 0 mm
13:45 22 °C 12.3 °C 1013.8 hPa West 12.9 km/h 27.4 km/h 54% 0 mm
13:49 21.8 °C 12.1 °C 1013.8 hPa SW 14.5 km/h 29 km/h 54% 0 mm
13:54 21.3 °C 12.7 °C 1013.8 hPa West 14.5 km/h 30.6 km/h 58% 0 mm
13:59 21.8 °C 12.9 °C 1013.8 hPa WSW 4.8 km/h 27.4 km/h 57% 0 mm
14:04 22.6 °C 12.6 °C 1013.8 hPa WSW 11.3 km/h 27.4 km/h 53% 0 mm
14:09 22.8 °C 12.7 °C 1013.4 hPa WSW 11.3 km/h 25.7 km/h 53% 0 mm
14:15 22.9 °C 12.8 °C 1013.4 hPa WSW 12.9 km/h 29 km/h 53% 0 mm
14:20 22.4 °C 12.6 °C 1013.4 hPa WSW 12.9 km/h 29 km/h 54% 0 mm
14:25 22.6 °C 11.9 °C 1013.4 hPa WSW 12.9 km/h 25.7 km/h 51% 0 mm
14:30 22.4 °C 12.7 °C 1013.4 hPa SSE 8 km/h 22.5 km/h 54% 0 mm
14:34 22.6 °C 11.1 °C 1013.8 hPa SW 12.9 km/h 25.7 km/h 48% 0 mm
14:39 22.6 °C 11.3 °C 1013.8 hPa SW 11.3 km/h 29 km/h 49% 0 mm
14:44 22.6 °C 11.3 °C 1013.4 hPa WSW 9.7 km/h 25.7 km/h 49% 0 mm
14:49 22.7 °C 11.1 °C 1013.4 hPa SW 11.3 km/h 29 km/h 48% 0 mm
14:54 22.4 °C 12.4 °C 1013.1 hPa SE 12.9 km/h 32.2 km/h 53% 0 mm
14:59 22.4 °C 12.1 °C 1013.4 hPa WSW 16.1 km/h 35.4 km/h 52% 0 mm
15:04 22.6 °C 12.6 °C 1013.1 hPa WSW 16.1 km/h 35.4 km/h 53% 0 mm
15:09 22.8 °C 13.3 °C 1013.1 hPa WSW 14.5 km/h 29 km/h 55% 0 mm
15:15 22.8 °C 13.6 °C 1013.1 hPa SSW 16.1 km/h 25.7 km/h 56% 0 mm
15:19 22.7 °C 12.9 °C 1013.1 hPa WSW 16.1 km/h 37 km/h 54% 0 mm
15:25 22.7 °C 12.9 °C 1013.1 hPa SSW 11.3 km/h 40.2 km/h 54% 0 mm
15:29 22.7 °C 12.3 °C 1013.1 hPa WSW 17.7 km/h 40.2 km/h 52% 0 mm
15:34 22.8 °C 12.4 °C 1013.1 hPa WSW 16.1 km/h 38.6 km/h 52% 0 mm
15:40 22.7 °C 11.2 °C 1013.1 hPa WSW 17.7 km/h 40.2 km/h 48% 0 mm
15:44 23.3 °C 12.3 °C 1013.1 hPa West 17.7 km/h 40.2 km/h 50% 0 mm
15:50 23 °C 12 °C 1013.1 hPa West 16.1 km/h 38.6 km/h 50% 0 mm
15:55 22.4 °C 11.2 °C 1013.1 hPa WSW 22.5 km/h 40.2 km/h 49% 0 mm
15:59 21.5 °C 11.8 °C 1013.1 hPa WSW 17.7 km/h 40.2 km/h 54% 0 mm
16:04 21.4 °C 12.8 °C 1013.8 hPa WSW 16.1 km/h 35.4 km/h 58% 0 mm
16:09 20.3 °C 11.7 °C 1013.8 hPa WNW 12.9 km/h 33.8 km/h 58% 0 mm
16:14 20.4 °C 12.4 °C 1013.8 hPa WNW 11.3 km/h 24.1 km/h 60% 0 mm
16:19 20.9 °C 11.8 °C 1013.4 hPa NNW 9.7 km/h 22.5 km/h 56% 0 mm
16:24 20.8 °C 11.4 °C 1013.8 hPa West 16.1 km/h 27.4 km/h 55% 0 mm
16:29 21 °C 11.6 °C 1013.8 hPa WNW 14.5 km/h 27.4 km/h 55% 0 mm
16:34 21.2 °C 12.1 °C 1013.8 hPa WNW 12.9 km/h 24.1 km/h 56% 0 mm
16:39 21 °C 11.6 °C 1013.8 hPa West 9.7 km/h 24.1 km/h 55% 0 mm
16:44 21.2 °C 11.8 °C 1013.8 hPa West 9.7 km/h 16.1 km/h 55% 0 mm
16:49 21.4 °C 12 °C 1013.4 hPa West 11.3 km/h 16.1 km/h 55% 0 mm
16:54 21.6 °C 12.1 °C 1013.4 hPa West 6.4 km/h 20.9 km/h 55% 0 mm
16:59 21.6 °C 11.6 °C 1013.4 hPa West 9.7 km/h 24.1 km/h 53% 0 mm
17:04 21.1 °C 11.1 °C 1013.4 hPa WSW 12.9 km/h 25.7 km/h 53% 0 mm
17:09 20.8 °C 10.9 °C 1013.8 hPa WSW 12.9 km/h 25.7 km/h 53% 0 mm
17:14 20.6 °C 11.2 °C 1013.8 hPa WSW 11.3 km/h 24.1 km/h 55% 0 mm
17:19 20.8 °C 11.1 °C 1013.8 hPa WSW 14.5 km/h 30.6 km/h 54% 0 mm
17:24 20.9 °C 11.6 °C 1013.8 hPa WSW 11.3 km/h 25.7 km/h 55% 0 mm
17:29 21.1 °C 10.6 °C 1013.8 hPa West 16.1 km/h 24.1 km/h 51% 0 mm
17:34 21.3 °C 9.5 °C 1013.8 hPa NW 6.4 km/h 20.9 km/h 47% 0 mm
17:39 20.7 °C 9.9 °C 1013.8 hPa West 11.3 km/h 25.7 km/h 50% 0 mm
17:44 20.2 °C 10.1 °C 1013.8 hPa West 11.3 km/h 24.1 km/h 52% 0 mm
17:49 20.1 °C 10.2 °C 1013.8 hPa WNW 20.9 km/h 25.7 km/h 53% 0 mm
17:54 20.3 °C 10.7 °C 1013.8 hPa WSW 9.7 km/h 20.9 km/h 54% 0 mm
17:59 20.3 °C 10.4 °C 1013.8 hPa West 11.3 km/h 25.7 km/h 53% 0 mm
18:04 20.4 °C 10.8 °C 1013.8 hPa West 12.9 km/h 25.7 km/h 54% 0 mm
18:09 20.6 °C 11.2 °C 1013.8 hPa West 9.7 km/h 25.7 km/h 55% 0 mm
18:14 20.3 °C 11.2 °C 1013.8 hPa West 8 km/h 17.7 km/h 56% 0 mm
18:20 19.9 °C 11.9 °C 1014.1 hPa WSW 9.7 km/h 22.5 km/h 60% 0 mm
18:25 19.7 °C 11.9 °C 1013.8 hPa West 11.3 km/h 29 km/h 61% 0 mm
18:29 19.7 °C 12.2 °C 1014.1 hPa WSW 4.8 km/h 20.9 km/h 62% 0 mm
18:34 20 °C 12 °C 1014.1 hPa WSW 9.7 km/h 30.6 km/h 60% 0 mm
18:39 20.1 °C 12.1 °C 1014.1 hPa SW 14.5 km/h 24.1 km/h 60% 0 mm
18:44 19.7 °C 12.2 °C 1014.1 hPa WNW 9.7 km/h 25.7 km/h 62% 0 mm
18:49 19.7 °C 12.4 °C 1014.1 hPa WSW 12.9 km/h 27.4 km/h 63% 0 mm
18:54 20 °C 12.5 °C 1014.1 hPa WSW 12.9 km/h 30.6 km/h 62% 0 mm
18:59 20.2 °C 12.7 °C 1013.8 hPa WSW 12.9 km/h 30.6 km/h 62% 0 mm
19:04 20 °C 12.2 °C 1014.1 hPa WSW 12.9 km/h 29 km/h 61% 0 mm
19:09 19.9 °C 12.2 °C 1014.1 hPa WSW 22.5 km/h 24.1 km/h 61% 0 mm
19:14 19.8 °C 12.1 °C 1014.1 hPa West 8 km/h 22.5 km/h 61% 0 mm
19:19 19.8 °C 12.3 °C 1014.1 hPa WSW 14.5 km/h 27.4 km/h 62% 0 mm
19:24 19.7 °C 12.2 °C 1014.1 hPa WSW 12.9 km/h 27.4 km/h 62% 0 mm
19:29 19.7 °C 12.4 °C 1014.1 hPa WSW 12.9 km/h 29 km/h 63% 0 mm
19:34 19.7 °C 12.4 °C 1014.1 hPa WSW 11.3 km/h 29 km/h 63% 0 mm
19:39 19.7 °C 12.7 °C 1014.1 hPa WSW 11.3 km/h 22.5 km/h 64% 0 mm
19:44 19.7 °C 12.7 °C 1014.1 hPa West 9.7 km/h 25.7 km/h 64% 0 mm
19:49 19.4 °C 12.4 °C 1014.1 hPa SW 9.7 km/h 24.1 km/h 64% 0 mm
19:54 19.4 °C 12.4 °C 1014.1 hPa WSW 9.7 km/h 20.9 km/h 64% 0 mm
19:59 19.4 °C 12.4 °C 1014.1 hPa SW 11.3 km/h 19.3 km/h 64% 0 mm
20:04 19.3 °C 12.3 °C 1014.4 hPa West 17.7 km/h 22.5 km/h 64% 0 mm
20:09 19.2 °C 12.2 °C 1014.4 hPa West 4.8 km/h 22.5 km/h 64% 0 mm
20:14 19.2 °C 12.4 °C 1014.4 hPa WNW 9.7 km/h 20.9 km/h 65% 0 mm
20:19 19.1 °C 12.6 °C 1014.4 hPa West 11.3 km/h 22.5 km/h 66% 0 mm
20:24 19.1 °C 12.4 °C 1014.4 hPa WSW 9.7 km/h 22.5 km/h 65% 0 mm
20:29 19.1 °C 12.4 °C 1014.4 hPa WSW 9.7 km/h 19.3 km/h 65% 0 mm
20:34 19.1 °C 11.9 °C 1014.4 hPa West 9.7 km/h 20.9 km/h 63% 0 mm
20:39 19.1 °C 11.8 °C 1014.4 hPa West 8 km/h 20.9 km/h 63% 0 mm
20:44 18.9 °C 12 °C 1014.4 hPa SW 8 km/h 17.7 km/h 64% 0 mm
20:49 18.8 °C 12.1 °C 1014.4 hPa West 8 km/h 17.7 km/h 65% 0 mm
20:54 18.7 °C 12.2 °C 1014.4 hPa WSW 3.2 km/h 12.9 km/h 66% 0 mm
20:59 18.6 °C 12.3 °C 1014.4 hPa WSW 6.4 km/h 12.9 km/h 67% 0 mm
21:04 18.4 °C 12.2 °C 1014.4 hPa West 8 km/h 14.5 km/h 67% 0 mm
21:09 18.4 °C 12.4 °C 1014.4 hPa WNW 4.8 km/h 11.3 km/h 68% 0 mm
21:14 18.2 °C 12.2 °C 1014.4 hPa West 8 km/h 11.3 km/h 68% 0 mm
21:19 18.2 °C 12.2 °C 1014.8 hPa West 4.8 km/h 11.3 km/h 68% 0 mm
21:24 18.1 °C 12.3 °C 1014.8 hPa West 4.8 km/h 11.3 km/h 69% 0 mm
21:29 18 °C 12.2 °C 1014.8 hPa West 4.8 km/h 11.3 km/h 69% 0 mm
21:34 17.9 °C 12.2 °C 1014.8 hPa West 4.8 km/h 11.3 km/h 69% 0 mm
21:39 18 °C 12.2 °C 1014.8 hPa WSW 1.6 km/h 8 km/h 69% 0 mm
21:44 18.1 °C 12.3 °C 1014.8 hPa West 3.2 km/h 11.3 km/h 69% 0 mm
21:49 18.1 °C 12.3 °C 1014.8 hPa West 4.8 km/h 12.9 km/h 69% 0 mm
21:54 18.1 °C 12.3 °C 1014.8 hPa WSW 4.8 km/h 12.9 km/h 69% 0 mm
21:59 18.1 °C 12.6 °C 1014.8 hPa West 4.8 km/h 12.9 km/h 70% 0 mm
22:04 18.1 °C 12.5 °C 1015.1 hPa Calm   9.7 km/h 70% 0 mm
22:09 18 °C 12.4 °C 1015.1 hPa WNW 1.6 km/h 9.7 km/h 70% 0 mm
22:14 17.9 °C 12.3 °C 1015.1 hPa WSW 8 km/h 11.3 km/h 70% 0 mm
22:19 17.9 °C 12.2 °C 1015.1 hPa West 6.4 km/h 14.5 km/h 69% 0 mm
22:24 18.1 °C 11.8 °C 1015.1 hPa WSW 6.4 km/h 14.5 km/h 67% 0 mm
22:29 18.1 °C 11.7 °C 1015.1 hPa West 6.4 km/h 12.9 km/h 66% 0 mm
22:34 18.1 °C 11.7 °C 1015.1 hPa SW 6.4 km/h 9.7 km/h 66% 0 mm
22:39 18.2 °C 11.5 °C 1015.1 hPa West 6.4 km/h 9.7 km/h 65% 0 mm
22:44 18.1 °C 11.4 °C 1015.1 hPa West 4.8 km/h 14.5 km/h 65% 0 mm
22:49 18.1 °C 11.2 °C 1015.1 hPa West 4.8 km/h 14.5 km/h 64% 0 mm
22:54 18.1 °C 11.1 °C 1015.1 hPa West 4.8 km/h 12.9 km/h 64% 0 mm
22:59 18.1 °C 10.9 °C 1015.1 hPa West 6.4 km/h 12.9 km/h 63% 0 mm
23:04 18.1 °C 11.1 °C 1015.1 hPa West 6.4 km/h 14.5 km/h 64% 0 mm
23:09 18 °C 11.1 °C 1015.1 hPa West 4.8 km/h 9.7 km/h 64% 0 mm
23:14 18 °C 11.1 °C 1015.1 hPa West 6.4 km/h 12.9 km/h 64% 0 mm
23:19 17.9 °C 11.1 °C 1015.1 hPa WSW 4.8 km/h 16.1 km/h 64% 0 mm
23:24 17.9 °C 11.1 °C 1015.1 hPa WSW 4.8 km/h 9.7 km/h 64% 0 mm
23:29 17.9 °C 11.3 °C 1015.1 hPa WSW 8 km/h 8 km/h 65% 0 mm
23:34 17.9 °C 11.3 °C 1015.1 hPa WSW 6.4 km/h 14.5 km/h 65% 0 mm
23:39 17.9 °C 11.3 °C 1015.1 hPa West 9.7 km/h 14.5 km/h 65% 0 mm
23:44 17.9 °C 11.3 °C 1015.1 hPa West 6.4 km/h 14.5 km/h 65% 0 mm
23:49 17.9 °C 11.2 °C 1015.1 hPa West 6.4 km/h 14.5 km/h 65% 0 mm
23:54 17.9 °C 11.2 °C 1015.1 hPa West 6.4 km/h 17.7 km/h 65% 0 mm
23:59 17.9 °C 11 °C 1015.1 hPa WSW 8 km/h 17.7 km/h 64% 0 mm
Buffalo, New York, USA
Compliments of Weather Underground - 2.5 mb